Portada
METAR-TAF:

METAR-TAF

Aeroports :

Chamberlain Municipal Airport

Chamberlain, Dakota del Sud, Estats Units d'Amèrica

latitud: 43-46-00N, longitud: 099-19-06W, altitud: 516 m

Observació

L'informe es va fer fa 18 minuts, a les 20:35 UTC
Vent 12 kt del Sud
Temperatura 2°C
Humitat 87%
Pressió 1022 hPa
Visibilitat: 16.1 km
Cel clar

METAR: K9V9 062035Z AUTO 19012KT 10SM CLR 02/00 A3018 RMK AO2 T00171005

Hora: 14:53 (20:53 UTC)


TAF: manca

Observacions i pronòstics meteorològics de més de 4000 aeroports (METAR i TAF).

Les estacions disponibles són els punts grocs i vermells al mapa.

Posi el ratolí al punt desitjat per veure el nom de l'estació.

Feu clic per veure les observacions i els pronòstics meteorològics.

Per canviar el mapa: feu clic els botons verds amb una creu de color negre per apropar; al botó verd amb un guió per allunyar la imatge; o en les fletxes verdes per a mapes adjacents.


METAR-TAF: